• Join FlightAware (Why Join?)
  • Login
  • US Flag 
03:39AM EDT


 

Airport Tracker/Info


-or-


 

Live Flight TrackerFlight Track Log ✈ N275LE ✈ 10-Nov-2013 ✈ KAHN - KFFC

Flight Track Log - Related Links

Times and Time Zones

All times are in EST time to prevent confusion due to time zone crossing. See the N275LE flight status page for this flight to view local times or setup timezone preferences in your user account.

Time Position Orientation Groundspeed Altitude Reporting Facility
EST Latitude Longitude Course Direction KTS MPH feet Rate Location/Type
12:02PM 33.9000 -83.3500 180° South 153 176 2,800  Level Atlanta TRACON
12:03PM 33.8500 -83.3833 209° Southwest 166 191 4,000 600 Climbing Atlanta TRACON
12:04PM 33.8167 -83.4167 220° Southwest 182 209 4,100  Climbing Atlanta TRACON
12:05PM 33.7833 -83.4667 231° Southwest 195 224 4,100 -60 Level Atlanta TRACON
12:06PM 33.7333 -83.5167 220° Southwest 197 227 4,000 -60 Descending Atlanta TRACON
12:07PM 33.7000 -83.5500 220° Southwest 196 226 4,000  Level Atlanta TRACON
12:08PM 33.6667 -83.6000 231° Southwest 199 229 4,000  Level Atlanta TRACON
12:09PM 33.6167 -83.6500 220° Southwest 196 226 4,000  Level Atlanta TRACON
12:10PM 33.5833 -83.7000 231° Southwest 197 227 4,000  Level Atlanta TRACON
12:11PM 33.5500 -83.7333 220° Southwest 195 224 4,000  Level Atlanta TRACON
12:12PM 33.5000 -83.7833 220° Southwest 196 226 4,000 -120 Level Atlanta TRACON
12:13PM 33.4667 -83.8167 220° Southwest 196 226 3,800 -540 Descending Atlanta TRACON
12:14PM 33.4167 -83.8833 228° Southwest 227 261 3,000 -420 Descending Atlanta TRACON
12:15PM 33.4167 -83.9333 270° West 181 208 3,000  Level Atlanta TRACON
12:16PM 33.4167 -84.0000 270° West 177 204 3,000  Level Atlanta TRACON
12:17PM 33.4000 -84.0500 248° West 179 206 3,000  Level Atlanta TRACON
12:18PM 33.4000 -84.1167 270° West 177 204 3,000  Level Atlanta TRACON
12:19PM 33.4000 -84.1667 270° West 176 203 3,000  Level Atlanta TRACON
12:20PM 33.3833 -84.2333 253° West 178 205 3,000  Level Atlanta TRACON
12:21PM 33.3833 -84.2833 270° West 179 206 3,000  Level Atlanta TRACON